sensor_id;sensor_type;location;lat;lon;timestamp;P1;durP1;ratioP1;P2;durP2;ratioP2
12554;SDS011;6343;50.868;4.700;2022-09-21T00:00:47;10.47;;;5.47;;
12554;SDS011;6343;50.868;4.700;2022-09-21T00:03:13;9.63;;;4.60;;
12554;SDS011;6343;50.868;4.700;2022-09-21T00:05:40;7.83;;;4.63;;
12554;SDS011;6343;50.868;4.700;2022-09-21T00:08:06;9.43;;;4.97;;
12554;SDS011;6343;50.868;4.700;2022-09-21T00:10:33;12.80;;;8.23;;
12554;SDS011;6343;50.868;4.700;2022-09-21T00:13:00;20.80;;;9.33;;
12554;SDS011;6343;50.868;4.700;2022-09-21T00:15:29;14.23;;;6.40;;
12554;SDS011;6343;50.868;4.700;2022-09-21T00:17:56;9.93;;;3.73;;
12554;SDS011;6343;50.868;4.700;2022-09-21T00:20:23;6.77;;;3.47;;
12554;SDS011;6343;50.868;4.700;2022-09-21T00:22:49;4.80;;;3.33;;
12554;SDS011;6343;50.868;4.700;2022-09-21T00:25:16;5.87;;;4.63;;
12554;SDS011;6343;50.868;4.700;2022-09-21T00:27:43;5.97;;;3.70;;
12554;SDS011;6343;50.868;4.700;2022-09-21T00:30:12;6.07;;;3.60;;
12554;SDS011;6343;50.868;4.700;2022-09-21T00:32:39;6.03;;;3.63;;
12554;SDS011;6343;50.868;4.700;2022-09-21T00:35:06;10.13;;;4.10;;
12554;SDS011;6343;50.868;4.700;2022-09-21T00:37:32;6.33;;;4.33;;
12554;SDS011;6343;50.868;4.700;2022-09-21T00:39:58;18.23;;;10.53;;
12554;SDS011;6343;50.868;4.700;2022-09-21T00:42:25;8.63;;;4.27;;
12554;SDS011;6343;50.868;4.700;2022-09-21T00:44:52;4.27;;;3.40;;
12554;SDS011;6343;50.868;4.700;2022-09-21T00:47:21;5.93;;;4.10;;
12554;SDS011;6343;50.868;4.700;2022-09-21T00:49:49;14.93;;;9.40;;
12554;SDS011;6343;50.868;4.700;2022-09-21T00:52:18;13.17;;;9.43;;
12554;SDS011;6343;50.868;4.700;2022-09-21T00:54:50;14.50;;;6.60;;
12554;SDS011;6343;50.868;4.700;2022-09-21T00:57:18;10.37;;;7.07;;
12554;SDS011;6343;50.868;4.700;2022-09-21T00:59:46;7.43;;;3.77;;
12554;SDS011;6343;50.868;4.700;2022-09-21T01:02:14;3.83;;;3.00;;
12554;SDS011;6343;50.868;4.700;2022-09-21T01:04:40;7.90;;;3.17;;
12554;SDS011;6343;50.868;4.700;2022-09-21T01:07:07;6.03;;;3.10;;
12554;SDS011;6343;50.868;4.700;2022-09-21T01:09:36;4.27;;;3.10;;
12554;SDS011;6343;50.868;4.700;2022-09-21T01:14:44;3.80;;;3.23;;
12554;SDS011;6343;50.868;4.700;2022-09-21T01:17:17;5.20;;;3.37;;
12554;SDS011;6343;50.868;4.700;2022-09-21T01:27:30;4.30;;;3.40;;
12554;SDS011;6343;50.868;4.700;2022-09-21T01:30:04;6.97;;;3.50;;
12554;SDS011;6343;50.868;4.700;2022-09-21T01:35:08;4.53;;;3.00;;
12554;SDS011;6343;50.868;4.700;2022-09-21T01:37:56;9.80;;;3.10;;
12554;SDS011;6343;50.868;4.700;2022-09-21T01:40:27;3.80;;;2.60;;
12554;SDS011;6343;50.868;4.700;2022-09-21T01:42:55;9.13;;;3.00;;
12554;SDS011;6343;50.868;4.700;2022-09-21T01:45:27;6.00;;;3.27;;
12554;SDS011;6343;50.868;4.700;2022-09-21T01:47:55;4.80;;;2.83;;
12554;SDS011;6343;50.868;4.700;2022-09-21T01:50:26;3.40;;;2.77;;
12554;SDS011;6343;50.868;4.700;2022-09-21T01:52:59;4.23;;;2.93;;
12554;SDS011;6343;50.868;4.700;2022-09-21T01:55:28;7.53;;;3.13;;
12554;SDS011;6343;50.868;4.700;2022-09-21T02:00:29;8.87;;;3.30;;
12554;SDS011;6343;50.868;4.700;2022-09-21T02:02:57;4.13;;;2.90;;
12554;SDS011;6343;50.868;4.700;2022-09-21T02:05:25;4.70;;;3.03;;
12554;SDS011;6343;50.868;4.700;2022-09-21T02:07:51;3.50;;;2.53;;
12554;SDS011;6343;50.868;4.700;2022-09-21T02:10:34;8.07;;;3.00;;
12554;SDS011;6343;50.868;4.700;2022-09-21T02:13:03;4.27;;;2.67;;
12554;SDS011;6343;50.868;4.700;2022-09-21T02:15:35;3.80;;;2.80;;
12554;SDS011;6343;50.868;4.700;2022-09-21T02:18:04;3.67;;;2.70;;
12554;SDS011;6343;50.868;4.700;2022-09-21T02:20:35;6.00;;;3.00;;
12554;SDS011;6343;50.868;4.700;2022-09-21T02:31:15;5.90;;;2.90;;
12554;SDS011;6343;50.868;4.700;2022-09-21T02:33:55;3.67;;;2.70;;
12554;SDS011;6343;50.868;4.700;2022-09-21T02:39:28;5.37;;;2.70;;
12554;SDS011;6343;50.868;4.700;2022-09-21T02:42:04;4.90;;;2.63;;
12554;SDS011;6343;50.868;4.700;2022-09-21T02:44:46;5.27;;;2.63;;
12554;SDS011;6343;50.868;4.700;2022-09-21T02:47:13;4.30;;;2.90;;
12554;SDS011;6343;50.868;4.700;2022-09-21T02:49:46;3.63;;;2.60;;
12554;SDS011;6343;50.868;4.700;2022-09-21T02:52:16;5.53;;;3.10;;
12554;SDS011;6343;50.868;4.700;2022-09-21T02:54:43;5.47;;;2.97;;
12554;SDS011;6343;50.868;4.700;2022-09-21T02:57:11;4.17;;;2.60;;
12554;SDS011;6343;50.868;4.700;2022-09-21T02:59:38;6.17;;;2.50;;
12554;SDS011;6343;50.868;4.700;2022-09-21T03:02:05;4.60;;;2.63;;
12554;SDS011;6343;50.868;4.700;2022-09-21T03:04:32;3.13;;;2.73;;
12554;SDS011;6343;50.868;4.700;2022-09-21T03:06:58;6.37;;;3.00;;
12554;SDS011;6343;50.868;4.700;2022-09-21T03:09:24;4.80;;;2.97;;
12554;SDS011;6343;50.868;4.700;2022-09-21T03:11:50;3.80;;;2.80;;
12554;SDS011;6343;50.868;4.700;2022-09-21T03:14:16;5.73;;;2.43;;
12554;SDS011;6343;50.868;4.700;2022-09-21T03:16:43;5.63;;;2.90;;
12554;SDS011;6343;50.868;4.700;2022-09-21T03:19:09;4.43;;;3.00;;
12554;SDS011;6343;50.868;4.700;2022-09-21T03:21:40;7.47;;;2.80;;
12554;SDS011;6343;50.868;4.700;2022-09-21T03:24:06;6.50;;;3.50;;
12554;SDS011;6343;50.868;4.700;2022-09-21T03:26:32;4.23;;;2.80;;
12554;SDS011;6343;50.868;4.700;2022-09-21T03:28:59;5.90;;;2.83;;
12554;SDS011;6343;50.868;4.700;2022-09-21T03:31:25;4.90;;;2.70;;
12554;SDS011;6343;50.868;4.700;2022-09-21T03:33:51;5.53;;;2.90;;
12554;SDS011;6343;50.868;4.700;2022-09-21T03:36:17;4.20;;;2.83;;
12554;SDS011;6343;50.868;4.700;2022-09-21T03:38:44;4.43;;;2.70;;
12554;SDS011;6343;50.868;4.700;2022-09-21T03:41:11;3.80;;;2.67;;
12554;SDS011;6343;50.868;4.700;2022-09-21T03:43:39;6.77;;;2.77;;
12554;SDS011;6343;50.868;4.700;2022-09-21T03:46:05;7.07;;;3.13;;
12554;SDS011;6343;50.868;4.700;2022-09-21T03:48:32;6.27;;;2.60;;
12554;SDS011;6343;50.868;4.700;2022-09-21T03:50:58;7.63;;;2.83;;
12554;SDS011;6343;50.868;4.700;2022-09-21T03:53:24;3.03;;;2.37;;
12554;SDS011;6343;50.868;4.700;2022-09-21T03:55:50;4.13;;;3.10;;
12554;SDS011;6343;50.868;4.700;2022-09-21T03:58:16;3.60;;;2.80;;
12554;SDS011;6343;50.868;4.700;2022-09-21T04:00:43;2.97;;;2.60;;
12554;SDS011;6343;50.868;4.700;2022-09-21T04:03:09;4.40;;;2.37;;
12554;SDS011;6343;50.868;4.700;2022-09-21T04:05:37;9.97;;;2.60;;
12554;SDS011;6343;50.868;4.700;2022-09-21T04:08:03;5.73;;;2.80;;
12554;SDS011;6343;50.868;4.700;2022-09-21T04:10:29;4.13;;;2.67;;
12554;SDS011;6343;50.868;4.700;2022-09-21T04:12:57;6.37;;;2.80;;
12554;SDS011;6343;50.868;4.700;2022-09-21T04:15:23;2.83;;;2.40;;
12554;SDS011;6343;50.868;4.700;2022-09-21T04:17:50;3.67;;;2.53;;
12554;SDS011;6343;50.868;4.700;2022-09-21T04:20:17;4.60;;;2.77;;
12554;SDS011;6343;50.868;4.700;2022-09-21T04:22:43;2.90;;;2.27;;
12554;SDS011;6343;50.868;4.700;2022-09-21T04:25:10;7.00;;;2.93;;
12554;SDS011;6343;50.868;4.700;2022-09-21T04:27:36;3.40;;;2.57;;
12554;SDS011;6343;50.868;4.700;2022-09-21T04:30:03;5.97;;;2.50;;
12554;SDS011;6343;50.868;4.700;2022-09-21T04:32:29;2.80;;;2.50;;
12554;SDS011;6343;50.868;4.700;2022-09-21T04:34:55;3.20;;;2.33;;
12554;SDS011;6343;50.868;4.700;2022-09-21T04:37:22;3.07;;;2.73;;
12554;SDS011;6343;50.868;4.700;2022-09-21T04:39:48;4.27;;;2.97;;
12554;SDS011;6343;50.868;4.700;2022-09-21T04:42:14;4.17;;;2.90;;
12554;SDS011;6343;50.868;4.700;2022-09-21T04:44:40;4.43;;;2.83;;
12554;SDS011;6343;50.868;4.700;2022-09-21T04:47:06;2.80;;;2.60;;
12554;SDS011;6343;50.868;4.700;2022-09-21T04:49:32;4.60;;;2.80;;
12554;SDS011;6343;50.868;4.700;2022-09-21T04:51:58;3.17;;;2.30;;
12554;SDS011;6343;50.868;4.700;2022-09-21T04:54:25;3.80;;;3.07;;
12554;SDS011;6343;50.868;4.700;2022-09-21T04:56:51;4.33;;;2.63;;
12554;SDS011;6343;50.868;4.700;2022-09-21T04:59:17;3.57;;;2.97;;
12554;SDS011;6343;50.868;4.700;2022-09-21T05:01:43;4.17;;;2.93;;
12554;SDS011;6343;50.868;4.700;2022-09-21T05:04:09;5.27;;;3.03;;
12554;SDS011;6343;50.868;4.700;2022-09-21T05:06:35;5.27;;;3.23;;
12554;SDS011;6343;50.868;4.700;2022-09-21T05:09:02;6.20;;;2.90;;
12554;SDS011;6343;50.868;4.700;2022-09-21T05:11:46;6.23;;;2.80;;
12554;SDS011;6343;50.868;4.700;2022-09-21T05:14:13;4.93;;;3.30;;
12554;SDS011;6343;50.868;4.700;2022-09-21T05:16:39;4.70;;;3.13;;
12554;SDS011;6343;50.868;4.700;2022-09-21T05:19:05;9.00;;;3.20;;
12554;SDS011;6343;50.868;4.700;2022-09-21T05:21:31;6.73;;;3.60;;
12554;SDS011;6343;50.868;4.700;2022-09-21T05:23:57;5.20;;;3.20;;
12554;SDS011;6343;50.868;4.700;2022-09-21T05:26:23;4.00;;;3.37;;
12554;SDS011;6343;50.868;4.700;2022-09-21T05:28:50;5.97;;;3.37;;
12554;SDS011;6343;50.868;4.700;2022-09-21T05:36:37;7.20;;;3.47;;
12554;SDS011;6343;50.868;4.700;2022-09-21T05:39:04;6.03;;;2.90;;
12554;SDS011;6343;50.868;4.700;2022-09-21T05:41:31;8.90;;;3.33;;
12554;SDS011;6343;50.868;4.700;2022-09-21T05:43:57;4.30;;;3.07;;
12554;SDS011;6343;50.868;4.700;2022-09-21T05:48:59;5.90;;;2.97;;
12554;SDS011;6343;50.868;4.700;2022-09-21T05:51:38;9.40;;;3.17;;
12554;SDS011;6343;50.868;4.700;2022-09-21T06:02:07;8.47;;;3.37;;
12554;SDS011;6343;50.868;4.700;2022-09-21T06:04:35;5.63;;;3.43;;
12554;SDS011;6343;50.868;4.700;2022-09-21T06:07:02;6.90;;;3.50;;
12554;SDS011;6343;50.868;4.700;2022-09-21T06:09:28;4.17;;;3.20;;
12554;SDS011;6343;50.868;4.700;2022-09-21T06:11:54;5.40;;;3.43;;
12554;SDS011;6343;50.868;4.700;2022-09-21T06:14:20;5.93;;;3.20;;
12554;SDS011;6343;50.868;4.700;2022-09-21T06:16:49;17.93;;;4.80;;
12554;SDS011;6343;50.868;4.700;2022-09-21T06:19:16;5.53;;;3.20;;
12554;SDS011;6343;50.868;4.700;2022-09-21T06:21:42;7.57;;;3.63;;
12554;SDS011;6343;50.868;4.700;2022-09-21T06:24:08;8.90;;;4.27;;
12554;SDS011;6343;50.868;4.700;2022-09-21T06:26:35;5.60;;;3.23;;
12554;SDS011;6343;50.868;4.700;2022-09-21T06:29:02;5.90;;;3.13;;
12554;SDS011;6343;50.868;4.700;2022-09-21T06:31:28;8.60;;;3.47;;
12554;SDS011;6343;50.868;4.700;2022-09-21T06:33:54;6.93;;;3.60;;
12554;SDS011;6343;50.868;4.700;2022-09-21T06:36:21;4.57;;;3.30;;
12554;SDS011;6343;50.868;4.700;2022-09-21T06:38:47;10.13;;;3.87;;
12554;SDS011;6343;50.868;4.700;2022-09-21T06:41:13;11.47;;;7.83;;
12554;SDS011;6343;50.868;4.700;2022-09-21T06:43:39;9.00;;;4.53;;
12554;SDS011;6343;50.868;4.700;2022-09-21T06:46:05;8.77;;;3.73;;
12554;SDS011;6343;50.868;4.700;2022-09-21T06:48:32;7.90;;;3.47;;
12554;SDS011;6343;50.868;4.700;2022-09-21T06:51:00;5.13;;;3.77;;
12554;SDS011;6343;50.868;4.700;2022-09-21T06:53:27;11.23;;;4.03;;
12554;SDS011;6343;50.868;4.700;2022-09-21T06:55:58;5.60;;;4.30;;
12554;SDS011;6343;50.868;4.700;2022-09-21T06:58:24;6.37;;;4.03;;
12554;SDS011;6343;50.868;4.700;2022-09-21T07:00:51;9.83;;;4.53;;
12554;SDS011;6343;50.868;4.700;2022-09-21T07:03:17;7.90;;;4.37;;
12554;SDS011;6343;50.868;4.700;2022-09-21T07:05:44;7.13;;;3.93;;
12554;SDS011;6343;50.868;4.700;2022-09-21T07:08:10;10.03;;;6.60;;
12554;SDS011;6343;50.868;4.700;2022-09-21T07:10:36;10.67;;;4.97;;
12554;SDS011;6343;50.868;4.700;2022-09-21T07:13:03;7.20;;;4.13;;
12554;SDS011;6343;50.868;4.700;2022-09-21T07:15:30;5.20;;;3.90;;
12554;SDS011;6343;50.868;4.700;2022-09-21T07:17:56;6.07;;;4.03;;
12554;SDS011;6343;50.868;4.700;2022-09-21T07:20:22;6.17;;;4.33;;
12554;SDS011;6343;50.868;4.700;2022-09-21T07:22:48;9.43;;;4.57;;
12554;SDS011;6343;50.868;4.700;2022-09-21T07:25:15;7.47;;;4.63;;
12554;SDS011;6343;50.868;4.700;2022-09-21T07:27:41;6.03;;;4.17;;
12554;SDS011;6343;50.868;4.700;2022-09-21T07:30:08;10.50;;;4.40;;
12554;SDS011;6343;50.868;4.700;2022-09-21T07:32:34;6.60;;;4.10;;
12554;SDS011;6343;50.868;4.700;2022-09-21T07:35:00;7.77;;;4.77;;
12554;SDS011;6343;50.868;4.700;2022-09-21T07:37:26;11.03;;;5.23;;
12554;SDS011;6343;50.868;4.700;2022-09-21T07:39:53;6.53;;;4.97;;
12554;SDS011;6343;50.868;4.700;2022-09-21T07:42:19;7.40;;;4.67;;
12554;SDS011;6343;50.868;4.700;2022-09-21T07:44:46;7.90;;;4.80;;
12554;SDS011;6343;50.868;4.700;2022-09-21T07:47:13;10.47;;;4.53;;
12554;SDS011;6343;50.868;4.700;2022-09-21T07:49:40;8.03;;;4.93;;
12554;SDS011;6343;50.868;4.700;2022-09-21T07:52:06;10.43;;;5.30;;
12554;SDS011;6343;50.868;4.700;2022-09-21T07:54:33;10.23;;;5.30;;
12554;SDS011;6343;50.868;4.700;2022-09-21T07:56:59;13.57;;;6.23;;
12554;SDS011;6343;50.868;4.700;2022-09-21T07:59:44;12.37;;;5.40;;
12554;SDS011;6343;50.868;4.700;2022-09-21T08:02:11;10.03;;;6.40;;
12554;SDS011;6343;50.868;4.700;2022-09-21T08:04:37;9.07;;;6.10;;
12554;SDS011;6343;50.868;4.700;2022-09-21T08:07:03;11.17;;;6.27;;
12554;SDS011;6343;50.868;4.700;2022-09-21T08:09:29;8.20;;;5.80;;
12554;SDS011;6343;50.868;4.700;2022-09-21T08:11:55;10.40;;;6.90;;
12554;SDS011;6343;50.868;4.700;2022-09-21T08:14:22;12.97;;;7.40;;
12554;SDS011;6343;50.868;4.700;2022-09-21T08:16:48;10.80;;;7.67;;
12554;SDS011;6343;50.868;4.700;2022-09-21T08:19:14;13.53;;;7.23;;
12554;SDS011;6343;50.868;4.700;2022-09-21T08:21:46;15.57;;;8.93;;
12554;SDS011;6343;50.868;4.700;2022-09-21T08:24:13;13.10;;;8.33;;
12554;SDS011;6343;50.868;4.700;2022-09-21T08:26:39;17.77;;;8.90;;
12554;SDS011;6343;50.868;4.700;2022-09-21T08:29:06;15.63;;;8.70;;
12554;SDS011;6343;50.868;4.700;2022-09-21T08:31:33;19.23;;;7.90;;
12554;SDS011;6343;50.868;4.700;2022-09-21T08:33:59;12.63;;;6.50;;
12554;SDS011;6343;50.868;4.700;2022-09-21T08:36:25;18.70;;;7.00;;
12554;SDS011;6343;50.868;4.700;2022-09-21T08:38:51;10.83;;;6.77;;
12554;SDS011;6343;50.868;4.700;2022-09-21T08:41:24;12.63;;;6.57;;
12554;SDS011;6343;50.868;4.700;2022-09-21T08:43:51;10.90;;;5.77;;
12554;SDS011;6343;50.868;4.700;2022-09-21T08:46:20;8.70;;;5.87;;
12554;SDS011;6343;50.868;4.700;2022-09-21T08:48:49;8.53;;;5.73;;
12554;SDS011;6343;50.868;4.700;2022-09-21T08:51:22;9.27;;;6.30;;
12554;SDS011;6343;50.868;4.700;2022-09-21T08:53:50;11.83;;;5.30;;
12554;SDS011;6343;50.868;4.700;2022-09-21T08:56:17;9.27;;;5.53;;
12554;SDS011;6343;50.868;4.700;2022-09-21T08:58:45;8.80;;;4.37;;
12554;SDS011;6343;50.868;4.700;2022-09-21T09:09:16;7.93;;;4.30;;
12554;SDS011;6343;50.868;4.700;2022-09-21T09:11:59;8.23;;;3.67;;
12554;SDS011;6343;50.868;4.700;2022-09-21T09:14:49;14.20;;;3.83;;
12554;SDS011;6343;50.868;4.700;2022-09-21T09:17:32;11.27;;;3.80;;
12554;SDS011;6343;50.868;4.700;2022-09-21T09:25:21;6.00;;;2.40;;
12554;SDS011;6343;50.868;4.700;2022-09-21T09:27:55;5.03;;;2.33;;
12554;SDS011;6343;50.868;4.700;2022-09-21T09:30:24;5.60;;;3.30;;
12554;SDS011;6343;50.868;4.700;2022-09-21T09:32:59;7.27;;;2.50;;
12554;SDS011;6343;50.868;4.700;2022-09-21T09:35:28;4.97;;;2.47;;
12554;SDS011;6343;50.868;4.700;2022-09-21T09:37:56;5.63;;;2.93;;
12554;SDS011;6343;50.868;4.700;2022-09-21T09:40:28;3.43;;;2.10;;
12554;SDS011;6343;50.868;4.700;2022-09-21T09:43:00;2.43;;;1.50;;
12554;SDS011;6343;50.868;4.700;2022-09-21T09:50:42;7.77;;;2.37;;
12554;SDS011;6343;50.868;4.700;2022-09-21T09:53:10;4.07;;;2.23;;
12554;SDS011;6343;50.868;4.700;2022-09-21T09:55:38;5.57;;;2.20;;
12554;SDS011;6343;50.868;4.700;2022-09-21T09:58:06;6.13;;;2.00;;
12554;SDS011;6343;50.868;4.700;2022-09-21T10:00:41;6.43;;;1.90;;
12554;SDS011;6343;50.868;4.700;2022-09-21T10:03:18;5.03;;;2.70;;
12554;SDS011;6343;50.868;4.700;2022-09-21T10:05:44;5.40;;;2.10;;
12554;SDS011;6343;50.868;4.700;2022-09-21T10:10:56;3.83;;;1.90;;
12554;SDS011;6343;50.868;4.700;2022-09-21T10:15:53;3.30;;;1.60;;
12554;SDS011;6343;50.868;4.700;2022-09-21T10:23:30;6.17;;;2.33;;
12554;SDS011;6343;50.868;4.700;2022-09-21T10:25:58;3.57;;;2.27;;
12554;SDS011;6343;50.868;4.700;2022-09-21T10:28:25;4.10;;;2.30;;
12554;SDS011;6343;50.868;4.700;2022-09-21T10:31:06;4.10;;;2.13;;
12554;SDS011;6343;50.868;4.700;2022-09-21T10:33:33;5.70;;;2.13;;
12554;SDS011;6343;50.868;4.700;2022-09-21T10:36:20;4.77;;;2.17;;
12554;SDS011;6343;50.868;4.700;2022-09-21T10:38:49;5.27;;;2.00;;
12554;SDS011;6343;50.868;4.700;2022-09-21T10:41:16;7.67;;;2.60;;
12554;SDS011;6343;50.868;4.700;2022-09-21T10:43:42;10.80;;;2.23;;
12554;SDS011;6343;50.868;4.700;2022-09-21T10:46:08;4.30;;;2.07;;
12554;SDS011;6343;50.868;4.700;2022-09-21T10:48:35;4.10;;;2.00;;
12554;SDS011;6343;50.868;4.700;2022-09-21T10:51:01;4.13;;;1.70;;
12554;SDS011;6343;50.868;4.700;2022-09-21T10:53:28;10.90;;;2.40;;
12554;SDS011;6343;50.868;4.700;2022-09-21T10:55:58;4.60;;;2.00;;
12554;SDS011;6343;50.868;4.700;2022-09-21T10:58:25;7.93;;;1.93;;
12554;SDS011;6343;50.868;4.700;2022-09-21T11:00:52;2.27;;;1.80;;
12554;SDS011;6343;50.868;4.700;2022-09-21T11:06:00;7.80;;;2.30;;
12554;SDS011;6343;50.868;4.700;2022-09-21T11:11:11;4.73;;;2.57;;
12554;SDS011;6343;50.868;4.700;2022-09-21T11:16:15;7.27;;;2.10;;
12554;SDS011;6343;50.868;4.700;2022-09-21T11:26:26;5.37;;;1.90;;
12554;SDS011;6343;50.868;4.700;2022-09-21T11:31:40;7.30;;;1.77;;
12554;SDS011;6343;50.868;4.700;2022-09-21T11:34:32;6.20;;;1.80;;
12554;SDS011;6343;50.868;4.700;2022-09-21T11:37:09;4.90;;;1.73;;
12554;SDS011;6343;50.868;4.700;2022-09-21T11:42:20;3.70;;;1.67;;
12554;SDS011;6343;50.868;4.700;2022-09-21T11:44:53;3.93;;;1.30;;
12554;SDS011;6343;50.868;4.700;2022-09-21T11:52:42;3.63;;;1.60;;
12554;SDS011;6343;50.868;4.700;2022-09-21T12:00:20;8.07;;;1.53;;
12554;SDS011;6343;50.868;4.700;2022-09-21T12:08:26;2.40;;;1.10;;
12554;SDS011;6343;50.868;4.700;2022-09-21T12:13:36;6.83;;;1.40;;
12554;SDS011;6343;50.868;4.700;2022-09-21T12:16:18;4.67;;;1.53;;
12554;SDS011;6343;50.868;4.700;2022-09-21T12:21:21;4.73;;;1.27;;
12554;SDS011;6343;50.868;4.700;2022-09-21T12:23:58;6.93;;;1.30;;
12554;SDS011;6343;50.868;4.700;2022-09-21T12:26:28;2.63;;;0.90;;
12554;SDS011;6343;50.868;4.700;2022-09-21T12:28:59;5.40;;;1.67;;
12554;SDS011;6343;50.868;4.700;2022-09-21T12:34:14;2.57;;;1.10;;
12554;SDS011;6343;50.868;4.700;2022-09-21T12:41:58;2.83;;;0.77;;
12554;SDS011;6343;50.868;4.700;2022-09-21T12:44:38;2.30;;;1.20;;
12554;SDS011;6343;50.868;4.700;2022-09-21T12:50:05;3.77;;;1.00;;
12554;SDS011;6343;50.868;4.700;2022-09-21T12:52:33;3.60;;;1.03;;
12554;SDS011;6343;50.868;4.700;2022-09-21T12:57:52;3.07;;;1.40;;
12554;SDS011;6343;50.868;4.700;2022-09-21T13:00:22;6.97;;;1.20;;
12554;SDS011;6343;50.868;4.700;2022-09-21T13:02:52;1.37;;;0.97;;
12554;SDS011;6343;50.868;4.700;2022-09-21T13:12:50;5.50;;;1.10;;
12554;SDS011;6343;50.868;4.700;2022-09-21T13:17:43;3.00;;;1.00;;
12554;SDS011;6343;50.868;4.700;2022-09-21T13:20:19;3.73;;;0.90;;
12554;SDS011;6343;50.868;4.700;2022-09-21T13:22:46;2.20;;;1.03;;
12554;SDS011;6343;50.868;4.700;2022-09-21T13:35:50;1.87;;;1.07;;
12554;SDS011;6343;50.868;4.700;2022-09-21T13:40:55;3.37;;;0.77;;
12554;SDS011;6343;50.868;4.700;2022-09-21T13:43:22;5.83;;;1.40;;
12554;SDS011;6343;50.868;4.700;2022-09-21T13:45:52;6.17;;;1.20;;
12554;SDS011;6343;50.868;4.700;2022-09-21T13:48:20;3.10;;;1.00;;
12554;SDS011;6343;50.868;4.700;2022-09-21T13:50:51;2.40;;;1.10;;
12554;SDS011;6343;50.868;4.700;2022-09-21T13:53:34;2.93;;;1.20;;
12554;SDS011;6343;50.868;4.700;2022-09-21T13:56:08;3.03;;;1.10;;
12554;SDS011;6343;50.868;4.700;2022-09-21T13:58:41;2.20;;;1.00;;
12554;SDS011;6343;50.868;4.700;2022-09-21T14:01:17;7.27;;;1.20;;
12554;SDS011;6343;50.868;4.700;2022-09-21T14:03:56;2.97;;;1.00;;
12554;SDS011;6343;50.868;4.700;2022-09-21T14:06:23;2.00;;;0.83;;
12554;SDS011;6343;50.868;4.700;2022-09-21T14:08:56;6.70;;;1.00;;
12554;SDS011;6343;50.868;4.700;2022-09-21T14:11:31;3.80;;;1.00;;
12554;SDS011;6343;50.868;4.700;2022-09-21T14:14:03;5.23;;;1.40;;
12554;SDS011;6343;50.868;4.700;2022-09-21T14:24:39;2.03;;;1.10;;
12554;SDS011;6343;50.868;4.700;2022-09-21T14:30:05;5.60;;;1.20;;
12554;SDS011;6343;50.868;4.700;2022-09-21T14:32:50;4.17;;;1.00;;
12554;SDS011;6343;50.868;4.700;2022-09-21T14:35:21;2.93;;;1.17;;
12554;SDS011;6343;50.868;4.700;2022-09-21T14:37:51;5.83;;;1.10;;
12554;SDS011;6343;50.868;4.700;2022-09-21T14:40:29;2.50;;;1.00;;
12554;SDS011;6343;50.868;4.700;2022-09-21T14:42:56;2.17;;;0.80;;
12554;SDS011;6343;50.868;4.700;2022-09-21T14:48:07;3.57;;;1.03;;
12554;SDS011;6343;50.868;4.700;2022-09-21T15:07:05;1.60;;;0.90;;
12554;SDS011;6343;50.868;4.700;2022-09-21T15:12:58;3.70;;;1.13;;
12554;SDS011;6343;50.868;4.700;2022-09-21T15:15:35;3.03;;;1.10;;
12554;SDS011;6343;50.868;4.700;2022-09-21T15:18:17;10.37;;;1.30;;
12554;SDS011;6343;50.868;4.700;2022-09-21T15:20:57;3.53;;;1.10;;
12554;SDS011;6343;50.868;4.700;2022-09-21T15:23:31;3.60;;;1.00;;
12554;SDS011;6343;50.868;4.700;2022-09-21T15:25:59;7.83;;;1.40;;
12554;SDS011;6343;50.868;4.700;2022-09-21T15:29:03;4.90;;;1.03;;
12554;SDS011;6343;50.868;4.700;2022-09-21T15:31:33;3.30;;;1.20;;
12554;SDS011;6343;50.868;4.700;2022-09-21T15:33:59;4.97;;;1.30;;
12554;SDS011;6343;50.868;4.700;2022-09-21T15:36:27;3.63;;;1.20;;
12554;SDS011;6343;50.868;4.700;2022-09-21T15:38:55;2.43;;;1.00;;
12554;SDS011;6343;50.868;4.700;2022-09-21T15:41:40;3.93;;;1.07;;
12554;SDS011;6343;50.868;4.700;2022-09-21T15:44:16;3.03;;;1.00;;
12554;SDS011;6343;50.868;4.700;2022-09-21T15:46:45;2.90;;;1.03;;
12554;SDS011;6343;50.868;4.700;2022-09-21T15:49:15;6.57;;;1.30;;
12554;SDS011;6343;50.868;4.700;2022-09-21T15:51:46;2.83;;;0.90;;
12554;SDS011;6343;50.868;4.700;2022-09-21T15:56:44;8.03;;;1.20;;
12554;SDS011;6343;50.868;4.700;2022-09-21T15:59:11;2.10;;;0.90;;
12554;SDS011;6343;50.868;4.700;2022-09-21T16:01:41;2.50;;;1.03;;
12554;SDS011;6343;50.868;4.700;2022-09-21T16:04:13;1.57;;;0.90;;
12554;SDS011;6343;50.868;4.700;2022-09-21T16:06:41;3.90;;;0.90;;
12554;SDS011;6343;50.868;4.700;2022-09-21T16:11:55;3.80;;;1.20;;
12554;SDS011;6343;50.868;4.700;2022-09-21T16:14:22;4.60;;;1.33;;
12554;SDS011;6343;50.868;4.700;2022-09-21T16:23:03;4.77;;;1.47;;
12554;SDS011;6343;50.868;4.700;2022-09-21T16:27:53;6.37;;;1.20;;
12554;SDS011;6343;50.868;4.700;2022-09-21T16:30:39;5.67;;;1.97;;
12554;SDS011;6343;50.868;4.700;2022-09-21T16:35:50;2.53;;;1.20;;
12554;SDS011;6343;50.868;4.700;2022-09-21T16:38:17;3.00;;;1.20;;
12554;SDS011;6343;50.868;4.700;2022-09-21T16:40:45;4.73;;;1.10;;
12554;SDS011;6343;50.868;4.700;2022-09-21T16:43:11;5.67;;;1.63;;
12554;SDS011;6343;50.868;4.700;2022-09-21T16:45:38;3.73;;;1.47;;
12554;SDS011;6343;50.868;4.700;2022-09-21T16:48:04;6.00;;;1.53;;
12554;SDS011;6343;50.868;4.700;2022-09-21T16:50:32;3.07;;;1.70;;
12554;SDS011;6343;50.868;4.700;2022-09-21T16:52:58;3.10;;;1.40;;
12554;SDS011;6343;50.868;4.700;2022-09-21T16:55:24;3.63;;;1.37;;
12554;SDS011;6343;50.868;4.700;2022-09-21T16:57:50;5.00;;;1.50;;
12554;SDS011;6343;50.868;4.700;2022-09-21T17:00:17;2.63;;;1.30;;
12554;SDS011;6343;50.868;4.700;2022-09-21T17:02:44;3.57;;;1.50;;
12554;SDS011;6343;50.868;4.700;2022-09-21T17:05:10;4.60;;;1.83;;
12554;SDS011;6343;50.868;4.700;2022-09-21T17:07:53;2.80;;;1.30;;
12554;SDS011;6343;50.868;4.700;2022-09-21T17:10:19;3.67;;;1.27;;
12554;SDS011;6343;50.868;4.700;2022-09-21T17:12:48;4.30;;;1.20;;
12554;SDS011;6343;50.868;4.700;2022-09-21T17:15:15;5.80;;;1.63;;
12554;SDS011;6343;50.868;4.700;2022-09-21T17:17:41;4.77;;;1.40;;
12554;SDS011;6343;50.868;4.700;2022-09-21T17:20:14;2.43;;;1.20;;
12554;SDS011;6343;50.868;4.700;2022-09-21T17:22:41;6.83;;;1.40;;
12554;SDS011;6343;50.868;4.700;2022-09-21T17:25:07;4.20;;;1.93;;
12554;SDS011;6343;50.868;4.700;2022-09-21T17:27:34;3.47;;;1.60;;
12554;SDS011;6343;50.868;4.700;2022-09-21T17:30:00;2.23;;;1.43;;
12554;SDS011;6343;50.868;4.700;2022-09-21T17:32:28;3.00;;;1.53;;
12554;SDS011;6343;50.868;4.700;2022-09-21T17:34:59;5.70;;;1.63;;
12554;SDS011;6343;50.868;4.700;2022-09-21T17:37:26;3.87;;;1.63;;
12554;SDS011;6343;50.868;4.700;2022-09-21T17:39:52;2.97;;;1.40;;
12554;SDS011;6343;50.868;4.700;2022-09-21T17:42:18;2.87;;;1.70;;
12554;SDS011;6343;50.868;4.700;2022-09-21T17:47:19;4.40;;;1.63;;
12554;SDS011;6343;50.868;4.700;2022-09-21T17:49:46;5.63;;;2.73;;
12554;SDS011;6343;50.868;4.700;2022-09-21T17:52:16;12.27;;;2.83;;
12554;SDS011;6343;50.868;4.700;2022-09-21T17:55:02;9.73;;;2.60;;
12554;SDS011;6343;50.868;4.700;2022-09-21T18:00:21;7.93;;;3.27;;
12554;SDS011;6343;50.868;4.700;2022-09-21T18:02:48;5.33;;;2.70;;
12554;SDS011;6343;50.868;4.700;2022-09-21T18:05:22;8.47;;;2.70;;
12554;SDS011;6343;50.868;4.700;2022-09-21T18:07:49;9.97;;;2.70;;
12554;SDS011;6343;50.868;4.700;2022-09-21T18:10:17;9.27;;;3.60;;
12554;SDS011;6343;50.868;4.700;2022-09-21T18:12:52;5.33;;;3.30;;
12554;SDS011;6343;50.868;4.700;2022-09-21T18:17:54;7.97;;;4.40;;
12554;SDS011;6343;50.868;4.700;2022-09-21T18:23:17;14.73;;;5.30;;
12554;SDS011;6343;50.868;4.700;2022-09-21T18:25:46;15.27;;;6.40;;
12554;SDS011;6343;50.868;4.700;2022-09-21T18:28:17;11.27;;;5.77;;
12554;SDS011;6343;50.868;4.700;2022-09-21T18:30:49;15.23;;;6.53;;
12554;SDS011;6343;50.868;4.700;2022-09-21T18:35:51;15.30;;;6.70;;
12554;SDS011;6343;50.868;4.700;2022-09-21T18:38:35;14.97;;;6.50;;
12554;SDS011;6343;50.868;4.700;2022-09-21T18:43:33;12.83;;;6.80;;
12554;SDS011;6343;50.868;4.700;2022-09-21T18:46:01;13.47;;;6.00;;
12554;SDS011;6343;50.868;4.700;2022-09-21T18:53:41;18.63;;;9.40;;